sensor_id;sensor_type;location;lat;lon;timestamp;temperature;humidity
33841;DHT22;20142;28.494;-16.312;2023-05-29T00:01:55;18.50;83.90
33841;DHT22;20142;28.494;-16.312;2023-05-29T00:06:57;18.60;83.80
33841;DHT22;20142;28.494;-16.312;2023-05-29T00:11:59;18.60;83.50
33841;DHT22;20142;28.494;-16.312;2023-05-29T00:17:02;18.50;83.50
33841;DHT22;20142;28.494;-16.312;2023-05-29T00:22:04;18.30;83.60
33841;DHT22;20142;28.494;-16.312;2023-05-29T00:27:06;18.10;83.80
33841;DHT22;20142;28.494;-16.312;2023-05-29T00:32:09;18.00;84.90
33841;DHT22;20142;28.494;-16.312;2023-05-29T00:37:11;18.00;84.70
33841;DHT22;20142;28.494;-16.312;2023-05-29T00:42:13;18.10;84.60
33841;DHT22;20142;28.494;-16.312;2023-05-29T00:47:15;18.10;84.40
33841;DHT22;20142;28.494;-16.312;2023-05-29T00:52:17;18.10;84.70
33841;DHT22;20142;28.494;-16.312;2023-05-29T00:57:19;18.00;84.70
33841;DHT22;20142;28.494;-16.312;2023-05-29T01:02:21;18.10;84.60
33841;DHT22;20142;28.494;-16.312;2023-05-29T01:07:24;17.90;84.30
33841;DHT22;20142;28.494;-16.312;2023-05-29T01:12:29;17.80;84.30
33841;DHT22;20142;28.494;-16.312;2023-05-29T01:17:37;17.70;84.80
33841;DHT22;20142;28.494;-16.312;2023-05-29T01:23:06;17.60;84.60
33841;DHT22;20142;28.494;-16.312;2023-05-29T01:29:04;17.60;85.00
33841;DHT22;20142;28.494;-16.312;2023-05-29T01:33:59;17.50;84.70
33841;DHT22;20142;28.494;-16.312;2023-05-29T01:39:02;17.50;84.80
33841;DHT22;20142;28.494;-16.312;2023-05-29T01:44:06;17.60;84.90
33841;DHT22;20142;28.494;-16.312;2023-05-29T01:49:12;17.60;84.80
33841;DHT22;20142;28.494;-16.312;2023-05-29T01:54:14;17.60;84.80
33841;DHT22;20142;28.494;-16.312;2023-05-29T01:59:15;17.50;83.70
33841;DHT22;20142;28.494;-16.312;2023-05-29T02:04:17;17.20;85.40
33841;DHT22;20142;28.494;-16.312;2023-05-29T02:09:20;17.30;84.30
33841;DHT22;20142;28.494;-16.312;2023-05-29T02:14:23;17.10;84.70
33841;DHT22;20142;28.494;-16.312;2023-05-29T02:19:28;17.20;84.80
33841;DHT22;20142;28.494;-16.312;2023-05-29T02:24:30;17.20;84.90
33841;DHT22;20142;28.494;-16.312;2023-05-29T02:29:31;17.40;84.80
33841;DHT22;20142;28.494;-16.312;2023-05-29T02:34:33;17.40;84.70
33841;DHT22;20142;28.494;-16.312;2023-05-29T02:39:35;17.40;84.70
33841;DHT22;20142;28.494;-16.312;2023-05-29T02:44:36;17.50;84.60
33841;DHT22;20142;28.494;-16.312;2023-05-29T02:49:38;17.40;84.40
33841;DHT22;20142;28.494;-16.312;2023-05-29T02:54:40;17.20;84.90
33841;DHT22;20142;28.494;-16.312;2023-05-29T02:59:41;17.20;85.00
33841;DHT22;20142;28.494;-16.312;2023-05-29T03:04:45;17.30;85.00
33841;DHT22;20142;28.494;-16.312;2023-05-29T03:09:47;17.20;84.90
33841;DHT22;20142;28.494;-16.312;2023-05-29T03:14:48;17.40;84.90
33841;DHT22;20142;28.494;-16.312;2023-05-29T03:19:50;17.30;85.00
33841;DHT22;20142;28.494;-16.312;2023-05-29T03:24:52;17.40;84.90
33841;DHT22;20142;28.494;-16.312;2023-05-29T03:29:53;17.40;84.90
33841;DHT22;20142;28.494;-16.312;2023-05-29T03:34:55;17.50;84.70
33841;DHT22;20142;28.494;-16.312;2023-05-29T03:39:58;17.50;84.60
33841;DHT22;20142;28.494;-16.312;2023-05-29T03:45:00;17.50;84.60
33841;DHT22;20142;28.494;-16.312;2023-05-29T03:50:02;17.50;84.50
33841;DHT22;20142;28.494;-16.312;2023-05-29T03:55:07;17.50;84.50
33841;DHT22;20142;28.494;-16.312;2023-05-29T04:00:13;17.30;84.60
33841;DHT22;20142;28.494;-16.312;2023-05-29T04:05:16;17.30;84.60
33841;DHT22;20142;28.494;-16.312;2023-05-29T04:10:17;17.30;84.30
33841;DHT22;20142;28.494;-16.312;2023-05-29T04:15:19;17.20;84.60
33841;DHT22;20142;28.494;-16.312;2023-05-29T04:20:21;17.10;84.90
33841;DHT22;20142;28.494;-16.312;2023-05-29T04:25:23;17.10;85.10
33841;DHT22;20142;28.494;-16.312;2023-05-29T04:30:24;17.00;84.10
33841;DHT22;20142;28.494;-16.312;2023-05-29T04:35:26;16.90;84.90
33841;DHT22;20142;28.494;-16.312;2023-05-29T04:40:29;16.80;84.80
33841;DHT22;20142;28.494;-16.312;2023-05-29T04:45:32;16.90;85.00
33841;DHT22;20142;28.494;-16.312;2023-05-29T04:50:34;16.80;85.00
33841;DHT22;20142;28.494;-16.312;2023-05-29T04:55:37;16.60;84.70
33841;DHT22;20142;28.494;-16.312;2023-05-29T05:00:39;16.30;84.90
33841;DHT22;20142;28.494;-16.312;2023-05-29T05:05:41;16.40;85.80
33841;DHT22;20142;28.494;-16.312;2023-05-29T05:10:44;16.40;85.30
33841;DHT22;20142;28.494;-16.312;2023-05-29T05:15:46;16.30;85.70
33841;DHT22;20142;28.494;-16.312;2023-05-29T05:20:48;16.40;85.30
33841;DHT22;20142;28.494;-16.312;2023-05-29T05:25:49;16.40;85.50
33841;DHT22;20142;28.494;-16.312;2023-05-29T05:30:51;16.40;85.10
33841;DHT22;20142;28.494;-16.312;2023-05-29T05:35:53;16.30;84.90
33841;DHT22;20142;28.494;-16.312;2023-05-29T05:40:54;16.30;85.40
33841;DHT22;20142;28.494;-16.312;2023-05-29T05:45:56;16.10;85.10
33841;DHT22;20142;28.494;-16.312;2023-05-29T05:50:58;16.10;85.20
33841;DHT22;20142;28.494;-16.312;2023-05-29T05:55:59;16.10;85.40
33841;DHT22;20142;28.494;-16.312;2023-05-29T06:01:02;16.10;85.70
33841;DHT22;20142;28.494;-16.312;2023-05-29T06:06:03;16.10;84.90
33841;DHT22;20142;28.494;-16.312;2023-05-29T06:11:05;16.00;85.30
33841;DHT22;20142;28.494;-16.312;2023-05-29T06:16:07;16.00;85.30
33841;DHT22;20142;28.494;-16.312;2023-05-29T06:21:09;16.00;85.50
33841;DHT22;20142;28.494;-16.312;2023-05-29T06:26:10;16.20;85.60
33841;DHT22;20142;28.494;-16.312;2023-05-29T06:31:13;16.30;85.50
33841;DHT22;20142;28.494;-16.312;2023-05-29T06:36:15;16.30;85.60
33841;DHT22;20142;28.494;-16.312;2023-05-29T06:41:17;16.40;85.40
33841;DHT22;20142;28.494;-16.312;2023-05-29T06:46:19;16.60;85.40
33841;DHT22;20142;28.494;-16.312;2023-05-29T06:51:20;16.70;85.30
33841;DHT22;20142;28.494;-16.312;2023-05-29T06:56:22;16.80;85.00
33841;DHT22;20142;28.494;-16.312;2023-05-29T07:01:24;17.00;84.90
33841;DHT22;20142;28.494;-16.312;2023-05-29T07:06:26;17.10;85.10
33841;DHT22;20142;28.494;-16.312;2023-05-29T07:11:27;17.50;85.30
33841;DHT22;20142;28.494;-16.312;2023-05-29T07:16:29;17.80;85.00
33841;DHT22;20142;28.494;-16.312;2023-05-29T07:21:31;18.10;85.20
33841;DHT22;20142;28.494;-16.312;2023-05-29T07:26:33;18.50;85.00
33841;DHT22;20142;28.494;-16.312;2023-05-29T07:31:36;19.00;84.50
33841;DHT22;20142;28.494;-16.312;2023-05-29T07:37:05;19.40;84.30
33841;DHT22;20142;28.494;-16.312;2023-05-29T07:42:10;19.70;84.00
33841;DHT22;20142;28.494;-16.312;2023-05-29T07:47:12;19.50;84.20
33841;DHT22;20142;28.494;-16.312;2023-05-29T07:52:13;19.50;84.40
33841;DHT22;20142;28.494;-16.312;2023-05-29T07:57:15;19.50;84.50
33841;DHT22;20142;28.494;-16.312;2023-05-29T08:02:17;19.40;84.60
33841;DHT22;20142;28.494;-16.312;2023-05-29T08:07:18;19.30;85.20
33841;DHT22;20142;28.494;-16.312;2023-05-29T08:12:20;19.50;85.30
33841;DHT22;20142;28.494;-16.312;2023-05-29T08:17:21;19.70;85.20
33841;DHT22;20142;28.494;-16.312;2023-05-29T08:22:28;19.90;84.70
33841;DHT22;20142;28.494;-16.312;2023-05-29T08:27:31;20.20;85.00
33841;DHT22;20142;28.494;-16.312;2023-05-29T08:32:32;20.40;84.60
33841;DHT22;20142;28.494;-16.312;2023-05-29T08:37:34;20.30;84.00
33841;DHT22;20142;28.494;-16.312;2023-05-29T08:42:56;20.30;84.30
33841;DHT22;20142;28.494;-16.312;2023-05-29T08:48:01;20.40;83.80
33841;DHT22;20142;28.494;-16.312;2023-05-29T08:53:03;20.50;84.00
33841;DHT22;20142;28.494;-16.312;2023-05-29T08:58:05;20.70;83.50
33841;DHT22;20142;28.494;-16.312;2023-05-29T09:03:07;20.70;83.10
33841;DHT22;20142;28.494;-16.312;2023-05-29T09:08:09;20.90;82.70
33841;DHT22;20142;28.494;-16.312;2023-05-29T09:13:13;20.90;82.30
33841;DHT22;20142;28.494;-16.312;2023-05-29T09:18:17;21.20;82.80
33841;DHT22;20142;28.494;-16.312;2023-05-29T09:23:19;21.70;81.10
33841;DHT22;20142;28.494;-16.312;2023-05-29T09:28:21;21.80;81.60
33841;DHT22;20142;28.494;-16.312;2023-05-29T09:33:25;21.90;80.90
33841;DHT22;20142;28.494;-16.312;2023-05-29T09:38:27;21.90;80.40
33841;DHT22;20142;28.494;-16.312;2023-05-29T09:43:31;22.00;80.50
33841;DHT22;20142;28.494;-16.312;2023-05-29T09:48:35;21.90;80.40
33841;DHT22;20142;28.494;-16.312;2023-05-29T09:53:40;22.40;80.50
33841;DHT22;20142;28.494;-16.312;2023-05-29T09:58:44;22.80;79.50
33841;DHT22;20142;28.494;-16.312;2023-05-29T10:03:48;22.70;79.30
33841;DHT22;20142;28.494;-16.312;2023-05-29T10:08:50;22.70;79.00
33841;DHT22;20142;28.494;-16.312;2023-05-29T10:13:57;22.60;78.70
33841;DHT22;20142;28.494;-16.312;2023-05-29T10:19:00;22.60;77.80
33841;DHT22;20142;28.494;-16.312;2023-05-29T10:24:05;22.80;77.80
33841;DHT22;20142;28.494;-16.312;2023-05-29T10:29:25;22.90;76.80
33841;DHT22;20142;28.494;-16.312;2023-05-29T10:40:09;22.70;76.90
33841;DHT22;20142;28.494;-16.312;2023-05-29T10:50:45;23.00;76.20
33841;DHT22;20142;28.494;-16.312;2023-05-29T10:55:47;23.00;76.20
33841;DHT22;20142;28.494;-16.312;2023-05-29T11:00:49;23.10;76.30
33841;DHT22;20142;28.494;-16.312;2023-05-29T11:05:59;23.10;75.10
33841;DHT22;20142;28.494;-16.312;2023-05-29T11:11:05;23.10;75.60
33841;DHT22;20142;28.494;-16.312;2023-05-29T11:16:14;23.10;75.00
33841;DHT22;20142;28.494;-16.312;2023-05-29T11:21:49;23.10;75.20
33841;DHT22;20142;28.494;-16.312;2023-05-29T11:27:13;22.80;74.10
33841;DHT22;20142;28.494;-16.312;2023-05-29T11:32:16;23.00;75.00
33841;DHT22;20142;28.494;-16.312;2023-05-29T11:37:18;23.30;74.60
33841;DHT22;20142;28.494;-16.312;2023-05-29T11:42:20;23.30;73.30
33841;DHT22;20142;28.494;-16.312;2023-05-29T11:47:22;23.20;72.90
33841;DHT22;20142;28.494;-16.312;2023-05-29T11:52:25;23.50;73.00
33841;DHT22;20142;28.494;-16.312;2023-05-29T11:57:27;23.60;71.00
33841;DHT22;20142;28.494;-16.312;2023-05-29T12:02:31;23.80;71.30
33841;DHT22;20142;28.494;-16.312;2023-05-29T12:07:33;23.60;70.40
33841;DHT22;20142;28.494;-16.312;2023-05-29T12:12:34;23.70;69.50
33841;DHT22;20142;28.494;-16.312;2023-05-29T12:17:37;23.60;69.70
33841;DHT22;20142;28.494;-16.312;2023-05-29T12:22:40;23.80;67.70
33841;DHT22;20142;28.494;-16.312;2023-05-29T12:27:44;23.80;67.60
33841;DHT22;20142;28.494;-16.312;2023-05-29T12:32:51;24.10;66.80
33841;DHT22;20142;28.494;-16.312;2023-05-29T12:38:00;23.90;66.40
33841;DHT22;20142;28.494;-16.312;2023-05-29T12:43:05;23.80;66.30
33841;DHT22;20142;28.494;-16.312;2023-05-29T13:57:35;23.00;70.50
33841;DHT22;20142;28.494;-16.312;2023-05-29T14:02:38;23.80;69.80
33841;DHT22;20142;28.494;-16.312;2023-05-29T14:07:40;24.70;67.70
33841;DHT22;20142;28.494;-16.312;2023-05-29T14:12:42;25.30;66.80
33841;DHT22;20142;28.494;-16.312;2023-05-29T14:17:44;26.20;65.30
33841;DHT22;20142;28.494;-16.312;2023-05-29T14:22:46;27.30;64.20
33841;DHT22;20142;28.494;-16.312;2023-05-29T14:27:47;28.60;62.20
33841;DHT22;20142;28.494;-16.312;2023-05-29T14:32:49;29.60;59.10
33841;DHT22;20142;28.494;-16.312;2023-05-29T14:37:51;29.80;55.80
33841;DHT22;20142;28.494;-16.312;2023-05-29T14:42:53;30.20;54.30
33841;DHT22;20142;28.494;-16.312;2023-05-29T14:47:55;30.90;53.70
33841;DHT22;20142;28.494;-16.312;2023-05-29T14:52:57;31.00;52.30
33841;DHT22;20142;28.494;-16.312;2023-05-29T14:57:58;30.90;51.50
33841;DHT22;20142;28.494;-16.312;2023-05-29T15:03:00;31.80;51.80
33841;DHT22;20142;28.494;-16.312;2023-05-29T15:08:03;32.50;50.80
33841;DHT22;20142;28.494;-16.312;2023-05-29T15:13:05;32.10;48.00
33841;DHT22;20142;28.494;-16.312;2023-05-29T15:18:08;32.10;49.00
33841;DHT22;20142;28.494;-16.312;2023-05-29T15:23:10;32.40;49.60
33841;DHT22;20142;28.494;-16.312;2023-05-29T15:28:11;33.10;46.10
33841;DHT22;20142;28.494;-16.312;2023-05-29T15:33:14;32.90;46.70
33841;DHT22;20142;28.494;-16.312;2023-05-29T15:38:16;33.10;46.60
33841;DHT22;20142;28.494;-16.312;2023-05-29T15:43:17;33.10;46.10
33841;DHT22;20142;28.494;-16.312;2023-05-29T15:48:19;33.30;46.10
33841;DHT22;20142;28.494;-16.312;2023-05-29T15:53:21;33.20;45.80
33841;DHT22;20142;28.494;-16.312;2023-05-29T15:58:23;33.40;45.40
33841;DHT22;20142;28.494;-16.312;2023-05-29T16:03:25;33.40;46.60
33841;DHT22;20142;28.494;-16.312;2023-05-29T16:08:26;34.30;45.50
33841;DHT22;20142;28.494;-16.312;2023-05-29T16:13:28;34.50;44.00
33841;DHT22;20142;28.494;-16.312;2023-05-29T16:18:34;34.70;43.70
33841;DHT22;20142;28.494;-16.312;2023-05-29T16:23:36;34.70;42.90
33841;DHT22;20142;28.494;-16.312;2023-05-29T16:28:38;33.70;43.70
33841;DHT22;20142;28.494;-16.312;2023-05-29T16:33:39;33.70;43.70
33841;DHT22;20142;28.494;-16.312;2023-05-29T16:38:41;33.30;43.70
33841;DHT22;20142;28.494;-16.312;2023-05-29T16:43:43;34.10;43.60
33841;DHT22;20142;28.494;-16.312;2023-05-29T16:48:45;33.70;42.90
33841;DHT22;20142;28.494;-16.312;2023-05-29T16:53:46;33.40;44.20
33841;DHT22;20142;28.494;-16.312;2023-05-29T16:58:48;33.20;44.00
33841;DHT22;20142;28.494;-16.312;2023-05-29T17:03:50;34.30;44.40
33841;DHT22;20142;28.494;-16.312;2023-05-29T17:08:52;34.30;44.30
33841;DHT22;20142;28.494;-16.312;2023-05-29T17:13:53;33.60;44.30
33841;DHT22;20142;28.494;-16.312;2023-05-29T17:18:55;33.70;45.70
33841;DHT22;20142;28.494;-16.312;2023-05-29T17:23:57;34.30;44.60
33841;DHT22;20142;28.494;-16.312;2023-05-29T17:28:58;33.40;45.20
33841;DHT22;20142;28.494;-16.312;2023-05-29T17:34:00;32.80;45.80
33841;DHT22;20142;28.494;-16.312;2023-05-29T17:39:02;32.90;45.30
33841;DHT22;20142;28.494;-16.312;2023-05-29T17:44:04;33.30;46.00
33841;DHT22;20142;28.494;-16.312;2023-05-29T17:49:06;32.30;45.90
33841;DHT22;20142;28.494;-16.312;2023-05-29T17:54:07;30.70;47.00
33841;DHT22;20142;28.494;-16.312;2023-05-29T17:59:11;30.60;48.80
33841;DHT22;20142;28.494;-16.312;2023-05-29T18:04:13;32.00;47.80
33841;DHT22;20142;28.494;-16.312;2023-05-29T18:09:15;31.40;48.70
33841;DHT22;20142;28.494;-16.312;2023-05-29T18:14:17;31.00;49.60
33841;DHT22;20142;28.494;-16.312;2023-05-29T18:19:19;31.60;49.00
33841;DHT22;20142;28.494;-16.312;2023-05-29T18:24:20;30.50;48.80
33841;DHT22;20142;28.494;-16.312;2023-05-29T18:29:22;30.00;50.70
33841;DHT22;20142;28.494;-16.312;2023-05-29T18:34:24;29.60;50.10
33841;DHT22;20142;28.494;-16.312;2023-05-29T18:39:25;27.20;52.30
33841;DHT22;20142;28.494;-16.312;2023-05-29T18:44:27;27.00;53.60
33841;DHT22;20142;28.494;-16.312;2023-05-29T18:49:28;26.90;53.90
33841;DHT22;20142;28.494;-16.312;2023-05-29T18:54:31;25.10;56.50
33841;DHT22;20142;28.494;-16.312;2023-05-29T18:59:33;24.10;59.90
33841;DHT22;20142;28.494;-16.312;2023-05-29T19:04:35;23.60;60.20
33841;DHT22;20142;28.494;-16.312;2023-05-29T19:09:36;22.70;64.90
33841;DHT22;20142;28.494;-16.312;2023-05-29T19:14:38;22.70;64.70
33841;DHT22;20142;28.494;-16.312;2023-05-29T19:19:40;22.60;65.90
33841;DHT22;20142;28.494;-16.312;2023-05-29T19:24:41;23.00;66.40
33841;DHT22;20142;28.494;-16.312;2023-05-29T19:29:43;22.30;66.00
33841;DHT22;20142;28.494;-16.312;2023-05-29T19:34:44;22.30;67.10
33841;DHT22;20142;28.494;-16.312;2023-05-29T19:39:46;22.00;68.70
33841;DHT22;20142;28.494;-16.312;2023-05-29T19:44:54;21.60;68.20
33841;DHT22;20142;28.494;-16.312;2023-05-29T19:49:58;21.50;69.00
33841;DHT22;20142;28.494;-16.312;2023-05-29T19:55:08;21.30;69.60
33841;DHT22;20142;28.494;-16.312;2023-05-29T20:00:11;21.00;71.80
33841;DHT22;20142;28.494;-16.312;2023-05-29T20:05:13;20.90;72.20
33841;DHT22;20142;28.494;-16.312;2023-05-29T20:10:14;20.50;75.80
33841;DHT22;20142;28.494;-16.312;2023-05-29T20:15:16;20.50;76.90
33841;DHT22;20142;28.494;-16.312;2023-05-29T20:20:18;20.50;75.90
33841;DHT22;20142;28.494;-16.312;2023-05-29T20:25:19;20.60;76.10
33841;DHT22;20142;28.494;-16.312;2023-05-29T20:30:22;20.60;76.60
33841;DHT22;20142;28.494;-16.312;2023-05-29T20:35:23;20.80;76.40
33841;DHT22;20142;28.494;-16.312;2023-05-29T20:40:26;20.90;76.20
33841;DHT22;20142;28.494;-16.312;2023-05-29T20:45:29;21.00;75.70
33841;DHT22;20142;28.494;-16.312;2023-05-29T20:50:32;20.70;77.00
33841;DHT22;20142;28.494;-16.312;2023-05-29T20:55:33;20.70;77.00
33841;DHT22;20142;28.494;-16.312;2023-05-29T21:00:35;20.70;77.10
33841;DHT22;20142;28.494;-16.312;2023-05-29T21:05:39;20.70;77.20
33841;DHT22;20142;28.494;-16.312;2023-05-29T21:10:41;20.80;77.20
33841;DHT22;20142;28.494;-16.312;2023-05-29T21:15:43;20.90;76.80
33841;DHT22;20142;28.494;-16.312;2023-05-29T21:20:45;20.90;76.30
33841;DHT22;20142;28.494;-16.312;2023-05-29T21:25:47;21.00;76.70
33841;DHT22;20142;28.494;-16.312;2023-05-29T21:30:50;20.80;76.70
33841;DHT22;20142;28.494;-16.312;2023-05-29T21:35:52;20.60;77.10
33841;DHT22;20142;28.494;-16.312;2023-05-29T21:40:54;20.50;77.50
33841;DHT22;20142;28.494;-16.312;2023-05-29T21:45:57;20.40;77.70
33841;DHT22;20142;28.494;-16.312;2023-05-29T21:51:00;20.40;77.80
33841;DHT22;20142;28.494;-16.312;2023-05-29T21:56:02;20.20;78.40
33841;DHT22;20142;28.494;-16.312;2023-05-29T22:01:04;20.20;78.50
33841;DHT22;20142;28.494;-16.312;2023-05-29T22:06:06;20.30;78.90
33841;DHT22;20142;28.494;-16.312;2023-05-29T22:11:11;20.60;78.70
33841;DHT22;20142;28.494;-16.312;2023-05-29T22:16:13;20.90;78.10
33841;DHT22;20142;28.494;-16.312;2023-05-29T22:21:15;20.90;77.40
33841;DHT22;20142;28.494;-16.312;2023-05-29T22:26:16;20.70;78.30
33841;DHT22;20142;28.494;-16.312;2023-05-29T22:31:21;20.40;78.50
33841;DHT22;20142;28.494;-16.312;2023-05-29T22:36:23;20.10;78.90
33841;DHT22;20142;28.494;-16.312;2023-05-29T22:41:25;19.90;79.30
33841;DHT22;20142;28.494;-16.312;2023-05-29T22:46:27;19.80;79.50
33841;DHT22;20142;28.494;-16.312;2023-05-29T22:51:32;19.70;79.70
33841;DHT22;20142;28.494;-16.312;2023-05-29T22:56:36;19.70;80.10
33841;DHT22;20142;28.494;-16.312;2023-05-29T23:01:38;19.60;80.40
33841;DHT22;20142;28.494;-16.312;2023-05-29T23:06:41;19.60;80.50
33841;DHT22;20142;28.494;-16.312;2023-05-29T23:11:43;19.80;80.60
33841;DHT22;20142;28.494;-16.312;2023-05-29T23:16:44;19.90;80.30
33841;DHT22;20142;28.494;-16.312;2023-05-29T23:21:47;19.90;80.30
33841;DHT22;20142;28.494;-16.312;2023-05-29T23:26:49;19.90;80.20
33841;DHT22;20142;28.494;-16.312;2023-05-29T23:31:52;19.60;80.70
33841;DHT22;20142;28.494;-16.312;2023-05-29T23:36:53;19.70;81.40
33841;DHT22;20142;28.494;-16.312;2023-05-29T23:41:55;19.70;80.90
33841;DHT22;20142;28.494;-16.312;2023-05-29T23:46:57;19.60;81.30
33841;DHT22;20142;28.494;-16.312;2023-05-29T23:52:00;19.30;81.90
33841;DHT22;20142;28.494;-16.312;2023-05-29T23:57:02;19.10;82.30
